Date,TemperatureHighF,TemperatureAvgF,TemperatureLowF,DewpointHighF,DewpointAvgF,DewpointLowF,HumidityHigh,HumidityAvg,HumidityLow,PressureMaxIn,PressureMinIn,WindSpeedMaxMPH,WindSpeedAvgMPH,GustSpeedMaxMPH,PrecipitationSumIn
2014-1-1,32.4,25.2,19.5,25.4,20.1,16.3,88,81,75,30.21,30.05,19,6,19,0.00
2014-1-2,19.4,13.6,2.6,16.0,9.1,-3.5,87,82,75,30.42,30.00,32,13,32,0.00
2014-1-3,19.7,9.1,-5.6,10.8,1.3,-11.2,79,70,58,30.50,30.04,29,8,29,0.00
2014-1-4,35.9,29.5,19.7,29.1,18.9,10.7,83,64,57,30.04,29.91,29,9,29,0.03
2014-1-5,33.5,22.0,-1.2,30.1,19.0,-6.9,93,88,75,30.09,29.70,34,12,39,0.01
2014-1-6,-1.4,-9.7,-13.3,-6.9,-17.1,-21.4,77,69,65,30.42,30.09,33,14,33,0.00
2014-1-7,10.2,-0.0,-10.7,2.5,-7.5,-18.1,76,70,66,30.44,30.28,19,5,19,0.00
2014-1-8,19.7,14.3,7.7,11.7,8.0,1.7,82,75,69,30.49,30.28,14,4,14,0.00
2014-1-9,31.8,23.0,14.6,29.5,18.5,9.0,91,83,74,30.49,30.15,18,4,18,0.00
2014-1-10,43.5,37.9,31.8,41.9,35.8,29.5,95,92,89,30.15,29.53,23,8,23,0.64
2014-1-11,42.5,36.7,30.9,41.2,34.0,26.6,96,90,81,29.81,29.42,27,8,27,0.04
2014-1-12,44.2,36.9,29.0,33.6,29.7,25.8,89,76,61,29.94,29.66,28,11,28,0.00
2014-1-13,50.4,43.2,28.2,40.1,33.9,24.3,85,70,60,29.78,29.55,22,9,22,0.00
2014-1-14,39.1,30.1,24.2,33.0,23.7,14.6,91,77,59,29.92,29.68,33,9,37,0.04
2014-1-15,25.8,20.1,15.4,17.3,12.1,9.5,79,71,63,30.11,29.92,24,8,24,0.00
2014-1-16,33.2,27.3,18.9,30.5,22.6,12.6,92,82,70,29.96,29.58,23,8,23,0.03
2014-1-17,31.3,14.8,9.7,27.0,8.1,1.6,85,74,66,30.04,29.65,32,8,32,0.00
2014-1-18,23.5,18.1,8.6,20.7,13.4,4.0,89,82,71,30.01,29.69,21,4,27,0.00
2014-1-19,38.2,26.2,12.3,26.8,19.7,8.9,88,77,62,29.94,29.61,21,7,32,0.06
2014-1-20,38.5,34.3,25.0,30.0,27.2,20.3,84,75,63,29.90,29.60,25,6,25,0.02
2014-1-21,24.8,9.8,-0.2,20.6,3.5,-6.2,90,75,67,30.26,29.87,32,11,32,0.00
2014-1-22,19.1,8.1,-2.8,13.7,1.4,-8.5,81,74,66,30.25,29.95,29,7,32,0.00
2014-1-23,5.6,1.3,-3.7,-3.3,-8.2,-12.6,72,64,58,30.67,30.22,27,11,27,0.00
2014-1-24,24.5,10.7,-5.4,17.2,-0.4,-11.8,81,61,46,30.65,29.64,37,9,37,0.00
2014-1-25,32.2,20.9,9.2,27.5,9.0,-3.4,87,61,42,29.92,29.49,45,14,45,0.00
2014-1-26,43.1,28.3,9.5,31.7,16.7,-7.5,77,62,37,29.88,29.46,45,11,45,0.01
2014-1-27,13.1,3.2,-2.8,-3.2,-9.3,-14.5,65,55,44,30.49,29.88,45,15,45,0.00
2014-1-28,11.4,2.6,-6.8,-0.6,-8.0,-14.3,72,61,49,30.51,30.32,17,4,17,0.00
2014-1-29,27.6,16.3,3.9,6.3,1.6,-4.4,69,53,37,30.32,30.11,21,6,21,0.00
2014-1-30,36.0,27.9,18.6,14.9,9.3,4.8,56,46,36,30.12,29.73,33,12,34,0.00
2014-1-31,33.5,25.0,22.1,23.8,19.1,14.4,88,79,46,30.12,29.90,19,4,19,0.01
2014-2-1,39.1,32.6,27.0,37.5,30.4,23.6,94,92,87,30.02,29.74,14,4,14,0.36
2014-2-2,30.0,20.8,13.3,27.2,15.3,7.5,89,79,68,30.30,30.01,23,10,23,0.00
2014-2-3,25.7,15.8,6.1,16.1,9.3,1.0,83,75,61,30.38,30.26,13,4,13,0.01
2014-2-4,23.2,19.6,16.4,17.6,14.7,11.7,89,81,64,30.36,29.90,23,7,23,0.00
2014-2-5,26.0,20.2,7.6,23.0,16.5,2.3,93,86,77,30.46,29.86,24,14,24,0.00
2014-2-6,7.4,1.7,-4.8,2.1,-5.2,-11.3,80,72,63,30.55,30.46,21,5,21,0.00
2014-2-7,12.3,1.5,-10.7,0.5,-6.6,-17.0,78,69,56,30.50,30.37,16,2,16,0.00
2014-2-8,21.8,15.8,5.8,17.5,10.1,-0.4,84,78,71,30.37,30.11,14,2,14,0.00
2014-2-9,21.1,16.7,7.0,17.5,10.3,-0.8,86,76,66,30.31,30.09,21,7,21,0.01
2014-2-10,7.2,0.6,-5.9,-0.8,-8.3,-12.8,75,66,52,30.49,30.31,16,5,16,0.00
2014-2-11,14.6,1.6,-12.2,1.7,-7.0,-18.7,78,67,53,30.56,30.38,8,2,8,0.00
2014-2-12,27.9,12.0,-4.3,11.9,2.5,-10.2,81,66,46,30.38,30.00,8,1,8,0.00
2014-2-13,35.2,20.9,0.7,25.1,10.1,-4.8,80,64,41,30.01,29.59,22,4,22,0.01
2014-2-14,24.8,15.9,9.7,15.1,9.6,2.6,86,76,65,29.96,29.64,29,7,29,0.00
2014-2-15,21.0,9.4,-4.8,17.2,2.3,-10.4,85,73,57,30.14,29.95,13,3,13,0.00
2014-2-16,24.7,20.1,12.8,19.8,14.7,8.3,85,79,71,30.28,29.93,24,5,24,0.00
2014-2-17,35.6,26.8,16.4,31.4,22.0,12.2,92,82,69,30.25,29.68,26,8,26,0.00
2014-2-18,48.6,39.3,23.6,34.7,28.1,20.3,89,66,45,30.00,29.65,30,8,30,0.21
2014-2-19,44.5,38.1,33.5,34.7,29.8,28.0,84,72,59,29.99,29.64,26,6,26,0.00
2014-2-20,58.9,46.0,33.8,55.4,41.1,28.6,93,83,70,29.87,29.25,25,11,36,0.23
2014-2-21,42.8,37.5,32.8,29.2,25.2,19.2,76,62,43,29.84,29.52,36,10,36,0.00
2014-2-22,43.6,35.3,22.4,30.5,26.3,16.9,90,71,49,30.11,29.82,14,4,14,0.08
2014-2-23,28.2,24.4,21.6,25.4,16.0,10.9,89,71,58,30.26,30.02,18,7,21,0.01
2014-2-24,27.0,22.6,16.5,14.4,11.3,8.5,71,62,50,30.32,30.20,21,6,22,0.00
2014-2-25,24.1,20.0,10.7,15.4,11.2,-2.3,81,68,48,30.25,30.15,26,10,26,0.00
2014-2-26,18.1,11.3,3.0,5.4,-0.3,-5.9,69,59,51,30.28,29.78,22,8,29,0.00
2014-2-27,21.3,12.6,5.6,10.5,-1.7,-6.3,64,53,37,30.20,29.76,31,10,31,0.00
2014-2-28,37.3,23.1,4.8,13.4,5.0,-4.2,69,48,28,30.20,29.98,18,5,18,0.00
2014-3-1,36.9,30.0,20.3,27.8,19.8,10.8,85,67,40,30.25,29.99,21,8,21,0.01
2014-3-2,20.3,12.7,5.8,16.2,6.5,-2.8,85,76,67,30.39,30.21,29,14,29,0.00
2014-3-3,17.2,9.8,1.8,-0.1,-3.5,-9.4,68,55,39,30.48,30.35,17,7,17,0.00
2014-3-4,32.1,22.4,9.9,16.9,9.6,-0.4,72,58,46,30.36,30.15,14,3,15,0.02
2014-3-5,30.0,23.3,18.6,19.4,13.2,9.5,77,65,48,30.35,30.18,22,8,22,0.00
2014-3-6,40.8,27.6,18.1,25.0,17.4,10.0,82,66,45,30.35,30.05,13,5,13,0.00
2014-3-7,53.2,38.4,20.2,34.2,27.3,16.7,91,67,39,30.05,29.88,15,2,16,0.00
2014-3-8,41.2,33.1,23.9,33.5,27.5,20.0,87,80,74,30.24,29.91,24,7,24,0.00
2014-3-9,44.9,33.4,19.4,32.2,25.5,16.2,90,74,56,30.27,29.90,17,5,17,0.00
2014-3-10,60.5,47.9,37.9,44.1,37.0,30.4,80,66,50,29.90,29.64,17,5,17,0.00
2014-3-11,67.3,47.3,33.5,47.7,39.0,30.9,92,75,42,29.64,29.50,25,4,25,0.00
2014-3-12,39.6,30.3,19.9,35.8,25.8,14.1,93,83,70,30.10,29.41,39,17,39,1.03
2014-3-13,40.9,29.0,15.4,30.9,21.3,11.4,86,73,61,30.18,29.92,26,5,26,0.03
2014-3-14,60.2,48.8,37.6,40.6,35.0,29.0,73,60,42,29.92,29.65,29,9,29,0.00
2014-3-15,52.0,42.5,32.9,33.1,30.3,24.5,82,63,40,30.10,29.88,23,6,23,0.00
2014-3-16,32.9,28.8,21.8,24.5,15.5,5.5,71,58,38,30.18,30.05,29,11,29,0.00
2014-3-17,40.1,27.9,16.4,25.7,16.6,7.5,72,63,49,30.06,29.78,18,5,18,0.00
2014-3-18,53.3,41.4,27.8,41.0,31.4,21.9,82,68,53,29.86,29.59,25,8,25,0.00
2014-3-19,49.5,42.6,35.3,44.2,37.1,25.4,89,81,67,30.05,29.57,29,13,29,0.10
2014-3-20,53.8,41.1,28.1,35.6,29.7,23.9,86,65,41,30.07,29.94,22,5,22,0.00
2014-3-21,68.6,52.1,36.6,38.9,34.3,30.7,80,54,29,29.95,29.67,29,6,29,0.00
2014-3-22,47.9,38.7,29.7,35.4,28.5,24.2,82,67,53,30.29,29.82,29,10,29,0.00
2014-3-23,34.6,29.4,23.5,25.6,15.9,13.2,76,57,45,30.38,30.22,22,9,22,0.00
2014-3-24,36.9,28.4,20.0,20.1,15.6,11.1,85,60,35,30.35,30.01,16,2,16,0.00
2014-3-25,31.9,28.0,22.4,25.0,14.5,8.2,86,58,39,30.25,29.98,26,11,34,0.00
2014-3-26,41.5,29.4,15.1,15.9,12.3,9.2,79,52,29,30.35,30.06,23,5,23,0.00
2014-3-27,54.4,44.0,35.2,48.8,32.2,14.4,87,65,38,30.06,29.53,31,14,31,0.36
2014-3-28,53.9,44.1,40.1,48.5,37.3,32.6,86,77,68,30.11,29.53,32,10,32,0.35
2014-3-29,40.3,36.1,28.5,34.1,30.4,24.2,86,80,71,30.22,30.05,23,10,23,0.02
2014-3-30,57.2,41.0,23.3,32.5,27.2,20.3,89,62,37,30.25,30.05,15,3,15,0.00
2014-3-31,67.8,55.6,42.3,38.2,31.7,26.7,65,43,23,30.06,29.73,26,11,26,0.01
2014-4-1,59.9,50.0,37.8,43.9,32.7,22.7,70,52,39,30.04,29.72,25,8,30,0.00
2014-4-2,52.5,47.5,41.8,47.6,41.0,31.5,89,79,56,30.08,29.91,16,4,16,0.32
2014-4-3,52.2,48.1,42.5,50.5,46.2,40.9,95,93,87,29.90,29.58,25,7,25,1.03
2014-4-4,55.6,44.7,37.9,53.6,38.4,25.5,96,79,64,30.03,29.44,45,14,45,0.10
2014-4-5,52.3,42.4,34.3,32.0,28.0,26.1,73,58,38,30.19,30.03,16,6,16,0.00
2014-4-6,56.5,44.9,32.4,34.6,31.2,27.3,85,61,35,30.14,29.86,15,2,15,0.00
2014-4-7,52.3,45.0,41.8,41.3,36.5,32.7,89,73,51,29.86,29.54,23,6,23,0.31
2014-4-8,58.6,48.1,39.9,45.7,40.9,36.1,88,77,55,29.87,29.61,23,5,23,0.02
2014-4-9,62.3,49.3,34.6,41.9,34.9,29.2,93,62,29,30.01,29.87,23,4,23,0.00
2014-4-10,73.3,58.6,48.5,49.4,42.4,34.5,79,57,37,29.90,29.72,24,8,24,0.01
2014-4-11,70.9,58.2,45.1,46.5,32.5,22.8,80,42,17,30.00,29.87,19,4,19,0.00
2014-4-12,76.8,63.5,46.0,56.3,46.6,32.5,66,55,44,30.00,29.66,34,8,34,0.00
2014-4-13,71.3,66.2,61.6,59.9,56.5,53.4,89,71,62,29.74,29.47,31,10,31,0.23
2014-4-14,63.7,45.9,31.8,59.6,42.2,29.5,92,87,78,29.94,29.37,36,12,36,0.17
2014-4-15,40.1,33.3,28.2,29.6,22.3,16.3,91,66,42,30.21,29.94,26,9,26,0.03
2014-4-16,53.5,42.2,30.9,25.3,22.2,19.3,68,47,28,30.31,30.11,24,8,24,0.00
2014-4-17,67.3,53.9,41.3,40.6,32.9,24.5,62,46,31,30.20,30.13,18,4,19,0.00
2014-4-18,67.9,56.1,45.2,43.4,38.5,29.7,78,54,25,30.26,30.16,18,5,18,0.00
2014-4-19,70.8,56.7,37.0,42.1,35.6,27.0,68,48,26,30.29,30.15,18,4,18,0.00
2014-4-20,77.6,62.4,45.4,42.5,38.6,35.8,70,45,24,30.19,29.98,14,3,14,0.00
2014-4-21,74.2,63.4,53.8,55.6,48.5,41.3,85,60,40,29.98,29.77,24,3,24,0.00
2014-4-22,61.8,55.2,43.5,56.2,39.9,31.6,86,58,35,30.00,29.74,32,12,32,0.00
2014-4-23,62.3,49.3,34.4,34.1,29.0,24.8,76,49,25,30.11,29.95,18,5,18,0.00
2014-4-24,69.8,60.3,51.6,49.8,36.9,32.1,73,43,27,29.96,29.57,26,8,26,0.02
2014-4-25,72.5,60.6,51.1,53.6,44.3,32.9,92,60,24,29.80,29.53,30,9,30,0.38
2014-4-26,75.8,61.6,49.2,49.7,43.0,32.5,80,52,33,29.88,29.77,21,5,21,0.00
2014-4-27,74.2,60.0,47.3,58.0,45.3,35.6,84,60,41,29.91,29.67,21,6,21,0.09
2014-4-28,72.1,60.1,50.7,61.2,52.8,44.7,93,78,60,29.68,29.42,24,7,24,0.75
2014-4-29,69.8,59.3,48.3,53.8,48.7,40.3,94,72,38,29.68,29.41,30,6,30,0.03
2014-4-30,53.3,49.5,47.1,49.8,42.5,37.4,89,77,63,29.82,29.64,22,4,22,0.01
2014-5-1,50.4,47.1,43.2,42.7,40.0,36.9,86,77,64,29.85,29.75,23,4,23,0.01
2014-5-2,53.2,50.2,45.8,42.8,41.7,39.5,85,73,65,29.86,29.75,18,4,18,0.01
2014-5-3,69.9,58.6,47.6,43.8,38.2,29.4,77,51,24,29.84,29.69,26,8,26,0.00
2014-5-4,66.1,58.2,50.1,44.7,35.6,20.3,74,45,27,29.97,29.83,22,8,22,0.00
2014-5-5,73.3,59.8,47.4,46.2,37.4,26.3,58,44,34,29.93,29.73,21,6,21,0.00
2014-5-6,76.8,63.7,50.4,50.0,43.4,37.1,62,49,35,29.87,29.70,16,5,20,0.00
2014-5-7,85.9,73.8,60.1,61.8,56.6,49.7,73,56,41,29.81,29.70,21,5,21,0.00
2014-5-8,87.4,78.2,67.1,63.6,59.7,56.5,73,55,37,29.84,29.76,23,8,29,0.00
2014-5-9,78.3,66.8,58.6,64.3,60.2,55.8,93,81,51,29.82,29.67,18,5,18,0.98
2014-5-10,77.9,64.9,52.2,55.7,45.8,35.2,91,56,22,29.91,29.82,15,2,15,0.01
2014-5-11,83.4,70.0,56.5,68.7,60.1,45.2,92,72,50,29.99,29.78,26,4,26,0.32
2014-5-12,82.8,74.6,66.6,69.8,67.1,60.2,90,78,64,29.91,29.78,23,5,23,0.02
2014-5-13,73.0,63.2,51.7,67.8,59.2,47.6,94,87,80,30.11,29.81,22,4,22,0.24
2014-5-14,53.2,50.0,45.1,49.1,46.3,42.9,93,87,80,30.10,29.85,30,10,30,0.67
2014-5-15,55.7,48.1,43.8,45.4,42.6,40.7,93,82,58,29.99,29.80,26,9,26,0.27
2014-5-16,54.1,45.7,39.1,45.5,41.3,36.4,93,85,64,30.10,29.90,14,2,14,0.25
2014-5-17,58.0,50.5,40.6,41.3,37.1,33.6,92,62,42,30.19,30.06,13,2,15,0.25
2014-5-18,66.4,53.1,37.9,43.4,38.6,34.9,92,62,32,30.25,30.15,9,1,9,0.00
2014-5-19,71.3,59.8,44.2,48.9,43.5,39.8,87,58,33,30.21,29.90,22,5,22,0.00
2014-5-20,83.6,72.1,61.3,65.2,59.2,47.4,81,64,52,29.96,29.78,14,4,14,0.00
2014-5-21,88.2,74.0,66.6,69.2,64.7,61.7,91,74,47,29.85,29.74,24,3,24,0.14
2014-5-22,77.9,68.3,57.6,63.9,52.0,44.0,91,58,33,30.04,29.83,14,4,18,0.00
2014-5-23,77.4,64.7,51.3,53.0,48.1,41.2,91,59,28,30.11,30.03,15,3,15,0.00
2014-5-24,75.6,64.2,49.5,54.2,48.2,43.9,82,59,34,30.16,30.04,8,1,8,0.00
2014-5-25,81.4,69.8,57.0,56.1,53.0,49.9,85,59,34,30.08,29.96,9,1,15,0.00
2014-5-26,87.2,74.5,60.4,67.6,61.2,53.4,83,65,43,30.00,29.86,13,2,13,0.00
2014-5-27,87.8,78.4,64.8,65.5,62.2,57.5,92,60,37,29.92,29.80,21,2,21,0.09
2014-5-28,85.9,74.1,64.7,69.1,64.7,61.5,93,74,45,29.91,29.83,18,2,18,0.01
2014-5-29,82.6,72.0,65.5,68.5,65.2,62.8,92,80,58,29.98,29.89,23,1,23,0.00
2014-5-30,87.0,77.8,66.4,64.9,52.0,41.8,85,44,22,30.07,29.97,16,4,16,0.00
2014-5-31,85.9,74.5,61.8,59.0,54.0,49.6,74,51,29,30.10,29.97,14,2,14,0.00
2014-6-1,87.2,72.7,62.9,70.1,61.9,54.3,91,71,44,30.01,29.86,15,2,19,0.16
2014-6-2,80.7,73.1,69.6,70.8,68.3,65.5,93,85,70,29.90,29.80,21,5,21,0.24
2014-6-3,88.0,76.5,67.9,68.1,60.3,48.0,93,63,26,29.90,29.80,17,3,19,0.01
2014-6-4,76.5,67.1,61.3,68.4,61.6,55.8,93,83,71,29.81,29.61,24,6,24,0.65
2014-6-5,77.2,66.8,57.0,57.4,54.3,50.6,92,67,41,29.90,29.80,10,3,10,0.00
2014-6-6,82.4,69.2,55.7,58.7,55.3,52.2,89,64,38,29.94,29.85,7,1,7,0.00
2014-6-7,81.1,70.6,58.7,61.6,56.5,49.9,91,64,36,29.94,29.59,16,2,16,0.39
2014-6-8,76.0,66.5,59.3,62.9,57.6,49.7,93,74,48,29.95,29.56,37,11,37,0.33
2014-6-9,79.6,68.0,55.7,64.0,55.8,50.1,86,67,45,29.93,29.79,8,1,8,0.00
2014-6-10,68.4,65.3,63.1,65.8,62.0,56.9,95,90,67,29.79,29.62,13,1,13,1.15
2014-6-11,76.8,68.0,62.7,66.4,63.5,60.8,96,86,66,29.70,29.60,16,2,18,0.04
2014-6-12,81.1,71.5,61.2,67.1,62.5,58.2,93,75,53,29.80,29.69,21,4,21,0.00
2014-6-13,75.3,65.5,54.8,58.7,47.5,37.9,79,55,28,29.98,29.80,21,6,21,0.00
2014-6-14,77.2,64.9,50.4,50.8,47.1,40.5,86,56,29,30.07,29.90,13,2,13,0.00
2014-6-15,83.4,74.6,58.9,69.0,61.0,49.5,78,63,49,29.95,29.78,23,5,23,0.00
2014-6-16,87.4,79.1,71.3,72.0,69.7,67.9,90,74,58,30.02,29.86,6,1,7,0.03
2014-6-17,90.1,81.8,74.0,73.0,69.7,66.9,80,67,52,29.92,29.81,14,2,14,0.00
2014-6-18,91.0,78.3,72.1,75.2,69.8,62.6,87,76,45,29.92,29.82,29,2,29,0.02
2014-6-19,90.5,80.4,71.5,75.1,71.1,67.4,91,75,54,29.98,29.88,16,2,16,0.00
2014-6-20,87.2,76.8,69.9,73.3,69.1,65.5,93,79,52,29.96,29.83,14,2,14,0.13
2014-6-21,87.6,75.2,66.9,69.4,65.9,62.5,93,76,44,29.90,29.79,31,1,31,0.26
2014-6-22,88.4,76.0,65.6,71.4,67.6,63.7,95,77,50,29.84,29.74,16,1,16,0.00
2014-6-23,87.8,76.4,69.1,74.4,68.4,64.6,92,77,60,29.81,29.72,21,2,21,0.38
2014-6-24,80.3,73.0,69.9,71.1,69.1,66.9,95,88,66,29.82,29.76,24,1,24,0.69
2014-6-25,87.0,75.5,66.6,67.9,65.6,62.9,93,74,47,29.93,29.81,18,3,18,0.24
2014-6-26,85.7,74.6,64.7,71.3,66.6,62.9,95,78,51,29.99,29.87,10,2,10,0.00
2014-6-27,86.7,76.8,68.8,72.7,68.0,64.1,92,76,52,29.96,29.90,16,1,16,0.19
2014-6-28,84.9,75.7,70.8,74.3,70.5,67.5,92,84,62,29.98,29.87,22,2,22,0.39
2014-6-29,82.6,77.0,73.0,72.5,70.3,68.7,88,80,68,29.95,29.85,16,3,16,0.00
2014-6-30,84.3,77.1,69.6,76.7,71.6,64.7,93,83,73,29.90,29.60,21,3,22,0.46
2014-7-1,84.7,74.9,66.3,70.8,65.6,62.8,93,75,48,29.83,29.60,24,2,24,0.44
2014-7-2,74.6,67.9,61.2,65.0,59.8,55.8,89,76,57,29.96,29.75,18,3,18,0.01
2014-7-3,76.0,65.7,58.7,58.0,56.2,52.4,91,73,46,30.14,29.95,15,4,15,0.02
2014-7-4,80.5,67.9,53.5,59.4,54.0,50.4,92,65,37,30.24,30.13,15,2,15,0.00
2014-7-5,78.6,70.2,59.8,61.6,57.9,52.5,92,67,42,30.22,30.01,9,1,9,0.00
2014-7-6,84.5,74.0,62.4,73.2,66.5,59.1,91,78,66,30.03,29.75,17,3,17,0.16
2014-7-7,87.4,78.0,72.3,74.8,71.3,68.7,90,80,59,29.75,29.63,15,2,15,0.01
2014-7-8,82.4,74.3,67.4,70.5,65.3,60.8,93,75,50,29.80,29.56,23,5,23,0.32
2014-7-9,80.5,71.6,62.3,62.9,59.1,53.8,90,67,41,29.97,29.80,23,4,23,0.00
2014-7-10,78.8,69.6,59.2,59.2,55.5,50.7,88,64,39,30.10,29.97,14,2,14,0.00
2014-7-11,83.4,71.7,57.5,62.7,58.5,54.9,92,66,41,30.14,30.03,7,1,7,0.00
2014-7-12,80.9,74.4,69.1,75.2,69.0,62.3,94,83,68,30.08,29.85,15,2,15,0.63
2014-7-13,85.5,77.6,70.8,74.1,69.8,66.6,92,78,54,29.87,29.81,18,2,18,0.36
2014-7-14,84.0,71.3,64.3,71.7,65.6,54.9,92,83,64,29.83,29.70,32,2,32,0.53
2014-7-15,70.6,62.7,55.1,55.4,52.1,49.3,82,69,49,29.92,29.81,26,7,26,0.00
2014-7-16,73.7,63.7,54.1,56.1,52.9,47.9,91,70,42,29.98,29.91,16,3,16,0.00
2014-7-17,77.4,66.6,55.6,59.4,55.9,53.0,92,71,46,30.06,29.98,8,1,8,0.00
2014-7-18,77.2,68.1,58.3,59.2,56.5,53.0,89,69,44,30.10,30.01,8,1,8,0.00
2014-7-19,78.8,68.5,56.7,61.8,58.9,53.8,92,73,53,30.03,29.94,10,1,10,0.00
2014-7-20,82.6,71.2,61.3,65.2,61.5,58.3,93,74,46,30.01,29.94,7,1,7,0.00
2014-7-21,85.1,73.7,62.0,66.6,63.9,59.6,93,74,51,30.06,29.95,7,1,7,0.00
2014-7-22,86.1,76.3,65.0,71.2,67.6,62.6,93,76,59,30.02,29.89,10,1,12,0.00
2014-7-23,76.8,71.3,58.7,69.2,60.7,48.0,88,70,48,30.03,29.88,29,10,29,0.00
2014-7-24,76.3,67.7,54.2,60.7,56.0,51.1,92,68,46,30.07,29.97,14,5,14,0.00
2014-7-25,73.3,66.2,57.2,61.6,57.9,53.3,89,75,61,30.04,29.87,15,2,15,0.01
2014-7-26,81.2,72.6,66.0,75.4,67.2,60.1,93,83,73,29.87,29.71,18,2,18,0.18
2014-7-27,84.7,73.4,67.8,73.9,65.6,56.8,95,78,48,29.80,29.66,32,5,32,0.67
2014-7-28,71.6,64.7,55.1,59.6,54.6,45.9,87,71,45,30.02,29.79,25,7,25,0.00
2014-7-29,77.9,65.7,53.2,60.3,55.7,49.7,90,72,49,30.02,29.95,17,3,17,0.00
2014-7-30,81.4,69.4,58.6,64.3,59.6,55.5,91,73,47,29.99,29.93,15,3,15,0.00
2014-7-31,82.6,70.3,58.9,64.9,60.2,56.3,93,73,45,30.01,29.96,9,1,9,0.00
2014-8-1,82.8,69.8,61.2,67.1,61.3,57.6,92,76,47,30.03,29.98,10,1,10,0.00
2014-8-2,82.0,71.0,61.0,64.5,61.3,58.4,91,73,48,30.08,29.99,14,2,14,0.00
2014-8-3,85.1,72.9,60.4,66.4,62.2,58.1,93,72,42,30.10,30.00,9,1,9,0.00
2014-8-4,85.9,74.0,62.1,68.5,63.0,59.7,93,71,43,30.06,29.95,10,1,10,0.00
2014-8-5,81.8,74.5,66.4,69.2,67.2,63.1,92,79,64,29.98,29.92,6,1,7,0.08
2014-8-6,77.6,70.4,62.7,67.8,64.6,58.0,94,82,66,30.00,29.92,10,2,10,0.00
2014-8-7,77.9,70.8,62.6,66.3,61.2,57.1,85,72,61,29.99,29.92,11,1,11,0.00
2014-8-8,76.8,70.9,66.4,65.9,61.7,59.2,87,73,61,29.96,29.91,13,1,13,0.02
2014-8-9,79.8,72.1,66.1,66.9,62.4,59.4,81,72,62,29.97,29.90,18,4,18,0.00
2014-8-10,80.7,73.9,66.4,71.8,66.5,59.0,88,78,61,29.92,29.83,13,2,13,0.20
2014-8-11,81.4,72.8,67.8,70.2,67.8,64.5,93,85,64,29.83,29.72,14,2,14,1.14
2014-8-12,69.8,65.5,60.9,64.4,58.9,55.9,88,79,69,29.93,29.72,27,5,27,0.00
2014-8-13,81.4,68.7,57.0,61.4,57.3,52.8,92,70,44,30.01,29.92,15,2,15,0.00
2014-8-14,79.4,69.3,58.1,63.4,58.0,48.6,88,69,44,29.99,29.93,16,4,16,0.00
2014-8-15,75.8,64.6,50.7,60.4,52.2,43.9,88,66,38,30.04,29.91,7,1,7,0.00
2014-8-16,76.1,71.4,65.3,71.3,66.9,59.2,93,86,78,29.91,29.84,8,1,8,0.22
2014-8-17,78.6,71.7,67.1,69.6,66.5,62.4,92,84,73,29.86,29.79,15,3,15,0.04
2014-8-18,84.0,72.5,65.2,71.4,66.9,63.5,95,84,61,29.83,29.72,11,2,11,0.00
2014-8-19,83.4,74.0,66.8,74.7,68.7,63.6,94,84,67,29.75,29.66,18,1,18,0.50
2014-8-20,80.3,72.6,65.5,71.6,68.2,63.4,94,86,71,29.91,29.73,8,0,8,0.32
2014-8-21,87.8,78.9,70.8,76.6,72.5,68.0,92,81,66,29.92,29.82,13,1,13,0.00
2014-8-22,83.4,77.2,72.8,75.0,72.7,70.6,93,86,72,29.92,29.80,15,1,15,0.46
2014-8-23,87.2,74.7,70.6,78.3,71.5,68.0,94,90,70,29.93,29.83,31,1,31,0.70
2014-8-24,89.5,78.2,69.9,77.6,72.8,68.3,95,84,66,29.92,29.86,6,0,6,0.00
2014-8-25,91.0,78.6,70.3,78.7,72.4,65.0,94,82,56,30.05,29.89,29,2,29,0.17
2014-8-26,90.5,75.1,67.6,78.4,69.6,65.2,93,84,61,30.03,29.93,34,1,34,0.64
2014-8-27,85.7,75.7,68.6,74.1,69.0,61.8,93,80,63,30.03,29.97,13,2,13,0.00
2014-8-28,84.1,73.9,65.0,68.5,64.6,60.4,88,74,52,30.02,29.92,10,2,10,0.00
2014-8-29,85.5,74.9,70.9,76.1,69.7,66.0,92,84,70,29.95,29.80,15,1,30,1.10
2014-8-30,82.2,77.0,71.1,72.7,70.6,67.9,92,81,71,29.87,29.80,18,4,18,0.06
2014-8-31,85.3,75.8,71.3,74.0,71.1,69.2,95,86,66,29.89,29.81,8,1,8,0.54
2014-9-1,83.4,76.4,71.6,73.3,68.9,64.9,93,79,58,29.84,29.72,21,4,21,0.04
2014-9-2,80.9,72.5,66.9,70.0,67.4,64.7,94,84,66,29.92,29.78,10,1,10,0.27
2014-9-3,84.5,74.8,64.7,68.4,64.9,61.3,94,73,48,29.98,29.90,1,0,1,0.00
2014-9-4,86.5,77.2,68.4,74.4,69.0,63.6,86,76,65,30.00,29.87,1,0,1,0.00
2014-9-5,92.1,80.3,69.4,76.5,71.4,66.5,92,76,53,29.97,29.79,36,1,36,0.78
2014-9-6,74.0,66.1,56.5,66.8,58.4,51.3,93,78,53,30.12,29.95,17,5,17,0.04
2014-9-7,77.6,63.6,51.4,57.4,52.4,48.8,92,70,40,30.17,30.05,13,1,13,0.01
2014-9-8,78.1,66.0,54.2,59.2,54.7,50.8,91,69,41,30.08,29.93,9,1,9,0.00
2014-9-9,73.0,65.9,58.9,66.3,60.6,54.3,93,83,77,30.05,29.80,19,2,20,0.37
2014-9-10,77.6,72.1,66.1,73.5,68.2,62.5,93,88,74,29.81,29.56,18,5,18,0.73
2014-9-11,66.0,56.5,52.2,63.9,52.2,47.5,93,85,79,30.21,29.76,26,8,26,0.00
2014-9-12,60.1,54.3,46.8,51.5,48.2,44.2,91,80,69,30.23,30.12,23,6,23,0.01
2014-9-13,60.9,50.0,40.3,45.9,42.3,37.9,92,77,49,30.33,30.20,22,6,22,0.03
2014-9-14,68.1,54.4,41.9,50.6,45.5,39.5,93,74,42,30.28,30.12,7,1,7,0.00
2014-9-15,57.8,54.4,49.1,55.8,51.6,46.0,94,90,78,30.15,29.96,16,1,16,0.52
2014-9-16,66.6,56.4,47.6,54.7,50.4,45.4,94,82,53,30.16,30.01,14,2,14,0.00
2014-9-17,69.4,60.4,45.7,55.4,51.4,43.8,94,74,51,30.02,29.90,10,1,10,0.01
2014-9-18,72.3,59.8,48.6,52.4,49.0,42.7,93,71,35,30.06,29.96,16,2,16,0.00
2014-9-19,73.7,61.6,50.1,54.2,50.3,46.7,89,69,42,30.11,29.95,14,2,14,0.00
2014-9-20,82.0,67.7,56.7,68.1,61.0,52.1,92,80,60,29.95,29.74,23,3,23,0.66
2014-9-21,70.4,64.8,56.5,68.0,55.6,48.9,93,74,48,30.05,29.71,29,7,29,0.01
2014-9-22,67.9,56.0,45.5,50.6,46.3,42.4,90,72,41,30.23,30.05,14,3,14,0.00
2014-9-23,74.4,59.3,45.7,52.5,48.4,42.9,92,70,40,30.30,30.19,7,1,7,0.00
2014-9-24,75.8,61.0,48.5,55.1,50.3,45.7,92,71,38,30.30,30.18,11,0,11,0.00
2014-9-25,79.6,63.3,51.7,60.0,53.8,49.4,93,75,38,30.25,30.12,8,0,8,0.01
2014-9-26,83.0,66.2,53.8,61.6,55.2,48.9,92,72,33,30.19,30.09,6,0,6,0.00
2014-9-27,82.4,67.4,55.4,62.5,55.7,49.5,88,69,35,30.17,30.04,8,1,8,0.00
2014-9-28,81.6,66.4,53.3,62.3,54.5,44.0,91,69,27,30.09,29.97,6,0,6,0.00
2014-9-29,84.3,66.8,52.3,62.3,55.5,49.5,92,70,37,29.99,29.84,13,1,13,0.00
2014-9-30,69.3,60.2,51.7,57.9,52.3,46.6,91,76,55,29.94,29.84,16,7,17,0.00
2014-10-1,78.3,63.9,49.4,61.1,54.4,45.9,89,73,51,29.94,29.80,8,1,8,0.00
2014-10-2,77.4,68.7,63.4,68.1,64.1,59.5,94,86,72,29.85,29.54,29,4,29,1.29
2014-10-3,66.3,56.7,44.8,64.3,52.0,35.0,95,85,61,29.83,29.46,29,8,34,0.42
2014-10-4,48.9,44.1,39.3,36.4,33.7,29.4,79,67,58,29.82,29.76,25,7,25,0.00
2014-10-5,58.4,48.9,38.3,44.2,39.0,33.5,85,69,47,29.80,29.63,17,1,17,0.00
2014-10-6,66.4,55.1,45.5,53.7,44.6,40.8,92,70,42,29.70,29.57,31,4,31,0.09
2014-10-7,70.3,56.9,47.9,58.2,49.8,42.4,92,78,45,29.85,29.61,24,3,24,0.07
2014-10-8,68.1,55.4,45.5,46.0,41.7,34.6,86,64,32,30.03,29.84,21,3,21,0.00
2014-10-9,57.5,53.6,47.4,53.7,49.6,42.5,92,86,74,30.11,29.99,9,1,9,0.09
2014-10-10,55.4,51.6,47.6,51.9,40.1,35.7,92,65,49,30.10,30.02,18,5,18,0.01
2014-10-11,58.9,49.3,40.1,43.2,38.3,35.9,86,67,44,30.18,30.06,15,4,15,0.00
2014-10-12,61.5,51.8,39.6,56.9,45.9,35.4,93,81,65,30.09,29.81,8,2,9,0.09
2014-10-13,72.5,65.4,59.0,66.3,62.2,57.0,95,90,75,29.83,29.49,22,4,22,0.75
2014-10-14,64.2,60.0,55.4,61.3,56.5,52.2,95,89,76,29.57,29.40,19,5,19,0.41
2014-10-15,56.3,54.2,53.1,54.3,52.2,50.3,94,93,90,29.75,29.56,19,4,19,0.15
2014-10-16,57.8,55.0,52.3,53.3,51.6,49.5,93,88,82,29.81,29.68,16,3,16,0.01
2014-10-17,62.4,56.1,50.7,50.2,47.8,45.1,91,75,61,29.83,29.57,27,7,27,0.00
2014-10-18,53.9,49.5,46.0,46.3,43.1,41.3,85,79,69,30.16,29.83,23,6,23,0.03
2014-10-19,56.9,47.4,37.9,43.0,40.4,35.3,93,78,55,30.21,29.94,16,2,16,0.00
2014-10-20,68.6,56.7,47.0,51.2,46.5,43.0,87,71,48,29.95,29.77,22,4,22,0.03
2014-10-21,56.7,51.3,46.2,47.2,43.3,38.3,89,75,54,30.19,29.92,24,6,24,0.00
2014-10-22,58.0,46.6,36.9,39.8,37.3,33.7,90,72,47,30.32,30.19,13,2,13,0.00
2014-10-23,59.9,48.8,38.8,45.8,40.8,35.3,92,75,51,30.22,30.05,8,1,13,0.00
2014-10-24,67.6,56.3,48.0,54.8,49.4,41.8,91,79,58,30.06,29.91,13,1,13,0.05
2014-10-25,75.8,62.4,51.3,57.5,48.5,35.6,91,64,32,29.93,29.85,18,4,18,0.00
2014-10-26,68.1,56.3,41.1,37.7,33.3,27.6,75,44,23,30.00,29.81,10,1,10,0.00
2014-10-27,77.7,68.2,55.0,61.2,50.5,34.8,85,55,39,29.81,29.58,19,5,19,0.00
2014-10-28,69.1,58.4,46.0,58.5,45.5,34.7,90,63,45,29.99,29.67,26,6,26,0.38
2014-10-29,49.1,44.5,38.4,37.7,34.7,32.6,82,69,54,30.12,29.98,24,4,24,0.00
2014-10-30,53.2,43.8,32.5,41.1,35.4,29.8,92,74,51,30.14,30.02,14,1,14,0.00
2014-10-31,45.4,40.3,34.3,40.3,31.4,24.8,85,71,53,30.25,29.97,40,17,40,0.02
2014-11-1,45.2,36.1,29.5,29.1,25.2,19.8,83,66,37,30.40,30.25,24,7,24,0.00
2014-11-2,51.9,39.8,25.6,27.9,23.9,18.7,90,58,27,30.45,30.21,15,5,15,0.00
2014-11-3,65.0,55.3,45.8,36.4,29.9,25.1,50,38,26,30.21,30.00,23,7,23,0.00
2014-11-4,56.6,49.0,41.6,49.0,41.7,33.4,93,79,43,30.13,29.97,17,4,17,0.50
2014-11-5,59.9,47.6,37.3,45.9,39.9,35.5,93,77,45,30.17,29.89,16,2,16,0.00
2014-11-6,47.6,43.3,37.0,43.0,36.4,26.2,90,77,63,30.20,29.80,32,11,32,0.04
2014-11-7,45.8,40.2,30.4,31.1,28.5,24.7,81,63,53,30.21,29.85,15,4,15,0.00
2014-11-8,47.0,42.1,34.7,40.6,32.6,26.8,82,69,55,30.00,29.74,24,6,24,0.00
2014-11-9,52.3,41.3,30.9,35.9,30.7,25.2,82,67,47,29.99,29.79,23,3,23,0.00
2014-11-10,63.2,52.9,43.5,44.1,39.9,35.8,78,62,46,29.83,29.55,29,10,29,0.00
2014-11-11,55.9,43.4,33.7,45.2,35.2,25.0,87,73,55,30.16,29.60,24,9,27,0.07
2014-11-12,33.7,28.8,23.2,24.8,19.3,13.4,72,67,61,30.33,30.16,23,8,23,0.00
2014-11-13,28.1,24.7,20.8,20.1,15.8,12.0,80,69,59,30.35,30.31,16,7,22,0.00
2014-11-14,28.5,22.5,17.7,16.1,13.6,11.8,80,69,54,30.40,30.34,17,4,17,0.00
2014-11-15,34.9,26.1,15.2,23.6,16.6,11.2,86,68,49,30.42,30.19,14,1,14,0.00
2014-11-16,33.1,29.9,27.5,27.9,25.9,23.7,90,85,76,30.19,29.89,10,0,10,0.00
2014-11-17,28.8,18.7,11.9,25.4,9.8,1.0,87,68,52,30.11,29.89,26,11,27,0.00
2014-11-18,17.8,13.7,9.3,9.4,5.3,1.4,75,69,58,30.23,30.10,24,6,24,0.00
2014-11-19,36.5,23.9,12.1,26.4,14.7,5.7,75,68,59,30.15,29.82,33,8,33,0.05
2014-11-20,31.3,25.6,19.7,15.1,12.5,7.9,71,58,45,30.33,30.07,24,6,24,0.00
2014-11-21,34.0,26.8,11.1,14.3,9.3,-0.3,77,49,32,30.49,30.21,15,3,15,0.00
2014-11-22,56.3,45.8,34.0,46.9,34.3,14.3,88,66,44,30.21,29.88,21,4,21,0.12
2014-11-23,55.9,51.4,49.9,49.6,47.8,43.1,93,88,71,29.88,29.10,27,3,27,0.14
2014-11-24,51.6,41.3,36.0,49.6,38.1,32.2,93,88,86,29.85,29.03,30,0,30,0.00
2014-11-25,36.0,29.8,26.3,32.2,24.3,19.1,86,80,73,30.22,29.85,19,2,19,0.00
2014-11-26,31.9,28.3,24.2,23.9,21.8,18.0,87,77,70,30.16,30.02,13,2,13,0.00
2014-11-27,30.1,27.7,24.4,23.4,20.7,18.3,83,75,69,30.42,30.16,21,4,21,0.00
2014-11-28,36.6,30.0,21.1,28.5,22.1,13.5,73,72,69,30.40,29.90,24,3,24,0.00
2014-11-29,52.5,45.7,36.0,47.6,38.9,28.2,84,77,69,29.91,29.65,27,4,27,0.00
2014-11-30,64.2,51.2,39.6,56.2,46.1,36.0,87,83,74,30.20,29.67,22,4,22,0.00
2014-12-1,39.6,30.2,22.7,36.0,21.7,12.3,87,71,50,30.59,30.20,27,7,27,0.00
2014-12-2,32.4,28.5,22.7,27.2,22.7,16.0,82,79,75,30.48,30.07,10,1,10,0.00
2014-12-3,40.8,32.5,26.7,28.0,23.9,18.1,87,71,48,30.37,30.12,19,2,19,0.00
2014-12-4,33.5,30.4,26.7,30.9,24.7,19.2,91,79,66,30.39,30.20,10,1,10,0.01
2014-12-5,36.2,35.1,33.2,34.9,33.5,30.9,95,94,91,30.21,30.06,1,0,1,0.00
2014-12-6,39.5,38.2,36.2,35.9,35.5,34.9,95,90,86,30.58,30.09,18,1,18,0.00
2014-12-7,39.2,35.3,28.2,35.9,30.3,23.1,88,82,74,30.62,30.27,13,2,13,0.00
2014-12-8,38.5,36.2,33.5,36.7,32.8,28.3,93,87,79,30.27,30.01,14,1,14,0.07
2014-12-9,38.5,36.7,33.5,36.7,34.6,31.7,94,92,88,30.33,30.09,19,1,20,0.00
2014-12-10,37.2,33.8,32.1,34.3,30.4,28.1,89,87,85,30.34,30.20,13,0,13,0.00
2014-12-11,32.1,30.9,29.7,28.4,25.2,22.8,86,79,71,30.30,30.17,16,2,16,0.00
2014-12-12,34.4,32.1,28.7,31.7,28.3,23.7,93,86,78,30.34,30.26,14,2,14,0.00
2014-12-13,49.4,41.8,34.1,42.0,37.1,31.2,89,83,75,30.27,30.09,5,0,5,0.00
2014-12-14,48.3,46.9,43.8,44.9,43.1,41.5,93,86,81,30.12,30.00,17,2,17,0.00
2014-12-15,47.1,45.6,44.8,43.7,43.6,41.5,95,92,88,30.00,29.61,16,0,16,0.00
2014-12-16,44.8,40.2,36.9,43.5,38.4,34.5,95,93,91,30.17,29.60,30,3,30,0.00
2014-12-17,36.9,28.0,23.2,34.8,24.6,18.8,92,87,83,30.29,30.16,9,0,9,0.00
2014-12-18,27.9,25.9,23.2,22.8,20.5,18.6,84,80,74,30.32,30.20,8,1,8,0.00
2014-12-19,31.6,28.8,18.9,24.6,22.9,15.7,87,78,72,30.33,30.23,8,1,8,0.01
2014-12-20,34.9,32.1,29.7,26.7,25.2,23.8,87,75,67,30.29,30.22,8,1,8,0.00
2014-12-21,40.2,34.3,30.7,30.7,27.1,23.7,79,75,67,30.26,29.99,15,2,15,0.00
2014-12-22,43.2,38.4,33.5,40.9,34.7,27.7,92,86,79,29.99,29.53,16,3,16,0.17
2014-12-23,49.4,45.3,42.9,43.0,41.0,40.0,92,85,74,29.73,29.52,11,1,11,0.00
2014-12-24,45.5,41.7,39.5,40.3,38.6,34.8,93,89,82,29.69,29.47,10,0,10,0.03
2014-12-25,43.1,40.0,36.0,37.7,35.0,30.7,93,82,71,30.04,29.69,18,3,18,0.00
2014-12-26,51.4,44.9,37.9,43.1,38.5,31.4,84,78,71,30.08,30.00,21,3,21,0.00
2014-12-27,47.9,46.9,45.7,44.9,43.9,42.3,94,89,81,30.11,29.97,13,0,13,0.00
2014-12-28,46.4,32.7,23.6,44.8,27.9,16.3,94,83,67,30.24,30.07,14,2,14,0.01
2014-12-29,35.9,29.1,21.3,25.5,21.7,16.9,89,74,60,30.44,30.23,16,3,16,0.00
2014-12-30,30.7,23.0,15.9,21.0,12.6,3.9,77,64,50,30.66,30.44,22,5,22,0.00
2014-12-31,21.8,17.8,8.6,7.9,4.3,-3.0,65,55,44,30.64,30.28,21,4,21,0.00
2015-1-1,31.9,25.4,19.5,17.1,12.6,7.9,69,58,48,30.28,30.06,22,4,22,0.00
2015-1-2,37.5,31.6,25.6,25.7,20.7,14.4,77,64,51,30.32,30.16,13,1,13,0.00